createdAt,value
2022-10-28T00:00:31.910Z,15.18
2022-10-28T00:03:01.893Z,14.90
2022-10-28T00:05:29.465Z,16.77
2022-10-28T00:07:56.711Z,16.88
2022-10-28T00:10:23.303Z,13.30
2022-10-28T00:12:49.928Z,21.17
2022-10-28T00:15:16.641Z,15.02
2022-10-28T00:17:43.446Z,13.80
2022-10-28T00:20:10.832Z,12.63
2022-10-28T00:22:38.024Z,12.90
2022-10-28T00:25:04.914Z,13.40
2022-10-28T00:27:33.271Z,12.55
2022-10-28T00:30:00.314Z,13.55
2022-10-28T00:32:30.852Z,13.65
2022-10-28T00:35:03.991Z,12.85
2022-10-28T00:37:30.702Z,13.37
2022-10-28T00:39:57.529Z,12.43
2022-10-28T00:42:24.150Z,11.82
2022-10-28T00:44:59.186Z,10.95
2022-10-28T00:47:33.545Z,14.15
2022-10-28T00:50:25.121Z,13.45
2022-10-28T00:52:55.324Z,10.52
2022-10-28T00:55:23.385Z,11.75
2022-10-28T00:57:50.813Z,14.02
2022-10-28T01:00:17.655Z,11.73
2022-10-28T01:02:49.151Z,11.15
2022-10-28T01:05:19.547Z,11.63
2022-10-28T01:07:46.402Z,10.40
2022-10-28T01:10:13.966Z,13.20
2022-10-28T01:12:47.829Z,12.25
2022-10-28T01:15:45.619Z,10.88
2022-10-28T01:18:38.126Z,13.27
2022-10-28T01:21:41.728Z,13.50
2022-10-28T01:24:48.215Z,12.35
2022-10-28T01:27:36.742Z,17.27
2022-10-28T01:30:22.168Z,14.32
2022-10-28T01:33:01.030Z,16.20
2022-10-28T01:35:39.509Z,12.32
2022-10-28T01:38:19.934Z,13.15
2022-10-28T01:40:55.831Z,9.52
2022-10-28T01:43:26.967Z,13.52
2022-10-28T01:46:05.913Z,11.93
2022-10-28T01:48:48.809Z,10.52
2022-10-28T01:51:42.264Z,12.23
2022-10-28T01:54:09.404Z,12.73
2022-10-28T01:56:40.268Z,11.95
2022-10-28T01:59:13.592Z,12.40
2022-10-28T02:01:40.398Z,11.85
2022-10-28T02:04:07.220Z,12.45
2022-10-28T02:06:34.891Z,10.65
2022-10-28T02:09:32.940Z,11.85
2022-10-28T02:12:22.265Z,9.93
2022-10-28T02:15:19.907Z,10.48
2022-10-28T02:18:08.037Z,11.20
2022-10-28T02:20:35.525Z,9.90
2022-10-28T02:23:15.295Z,11.35
2022-10-28T02:25:46.671Z,10.50
2022-10-28T02:28:18.145Z,10.57
2022-10-28T02:31:00.237Z,10.88
2022-10-28T02:33:31.379Z,11.27
2022-10-28T02:36:01.996Z,10.00
2022-10-28T02:38:33.358Z,10.30
2022-10-28T02:41:03.433Z,10.43
2022-10-28T02:43:32.958Z,13.80
2022-10-28T02:46:02.458Z,10.75
2022-10-28T02:48:33.759Z,9.02
2022-10-28T02:51:09.601Z,8.77
2022-10-28T02:53:50.292Z,10.15
2022-10-28T02:56:17.539Z,11.27
2022-10-28T02:58:45.113Z,8.15
2022-10-28T03:01:11.815Z,9.90
2022-10-28T03:03:38.490Z,9.10
2022-10-28T03:06:05.200Z,11.10
2022-10-28T03:08:31.815Z,8.95
2022-10-28T03:10:58.371Z,8.23
2022-10-28T03:13:24.989Z,8.77
2022-10-28T03:15:51.576Z,8.35
2022-10-28T03:18:18.211Z,9.45
2022-10-28T03:20:47.773Z,11.65
2022-10-28T03:23:14.402Z,9.15
2022-10-28T03:25:41.039Z,9.80
2022-10-28T03:28:07.687Z,10.32
2022-10-28T03:30:34.311Z,9.18
2022-10-28T03:33:00.936Z,10.82
2022-10-28T03:35:27.603Z,8.57
2022-10-28T03:37:54.231Z,8.80
2022-10-28T03:40:20.842Z,9.48
2022-10-28T03:42:47.462Z,10.60
2022-10-28T03:45:14.107Z,10.98
2022-10-28T03:47:40.927Z,11.57
2022-10-28T03:50:07.929Z,12.20
2022-10-28T03:52:34.530Z,10.60
2022-10-28T03:55:01.154Z,10.38
2022-10-28T03:57:31.507Z,10.70
2022-10-28T03:59:58.163Z,9.65
2022-10-28T04:02:24.867Z,7.35
2022-10-28T04:04:51.585Z,11.55
2022-10-28T04:07:18.364Z,10.95
2022-10-28T04:09:44.969Z,11.40
2022-10-28T04:12:11.689Z,9.65
2022-10-28T04:14:38.257Z,12.02
2022-10-28T04:17:04.862Z,12.18
2022-10-28T04:19:31.434Z,11.98
2022-10-28T04:21:58.045Z,9.32
2022-10-28T04:24:24.658Z,11.90
2022-10-28T04:26:51.245Z,11.00
2022-10-28T04:29:18.089Z,11.25
2022-10-28T04:31:46.469Z,11.60
2022-10-28T04:34:15.387Z,12.50
2022-10-28T04:36:42.044Z,16.42
2022-10-28T04:39:09.718Z,12.75
2022-10-28T04:41:36.293Z,9.77
2022-10-28T04:44:02.893Z,9.70
2022-10-28T04:46:29.502Z,7.88
2022-10-28T04:48:56.097Z,7.75
2022-10-28T04:51:22.731Z,9.27
2022-10-28T04:53:49.302Z,9.73
2022-10-28T04:56:16.001Z,10.18
2022-10-28T04:58:42.684Z,10.27
2022-10-28T05:01:10.449Z,9.57
2022-10-28T05:03:37.427Z,9.75
2022-10-28T05:06:07.644Z,9.55
2022-10-28T05:08:34.553Z,8.13
2022-10-28T05:11:01.258Z,8.55
2022-10-28T05:13:27.975Z,9.93
2022-10-28T05:15:54.763Z,14.65
2022-10-28T05:18:21.483Z,11.82
2022-10-28T05:20:52.826Z,11.48
2022-10-28T05:23:19.591Z,13.40
2022-10-28T05:25:46.258Z,12.88
2022-10-28T05:28:12.938Z,14.75
2022-10-28T05:30:39.635Z,11.68
2022-10-28T05:33:06.452Z,9.38
2022-10-28T05:35:35.967Z,9.60
2022-10-28T05:38:03.079Z,12.70
2022-10-28T05:40:29.984Z,10.40
2022-10-28T05:42:56.901Z,11.07
2022-10-28T05:45:23.829Z,10.40
2022-10-28T05:47:50.781Z,10.73
2022-10-28T05:50:18.729Z,13.48
2022-10-28T05:52:50.241Z,10.35
2022-10-28T05:55:21.363Z,12.18
2022-10-28T05:57:49.631Z,12.20
2022-10-28T06:00:18.172Z,10.43
2022-10-28T06:02:45.085Z,10.15
2022-10-28T06:05:12.586Z,8.65
2022-10-28T06:07:40.192Z,10.25
2022-10-28T06:10:08.090Z,9.10
2022-10-28T06:15:06.294Z,9.82
2022-10-28T06:17:33.091Z,9.93
2022-10-28T06:19:59.800Z,10.15
2022-10-28T06:22:26.517Z,16.35
2022-10-28T06:24:53.245Z,11.55
2022-10-28T06:27:19.985Z,11.98
2022-10-28T06:29:46.674Z,14.93
2022-10-28T06:32:13.468Z,13.88
2022-10-28T06:34:40.204Z,17.70
2022-10-28T06:37:08.917Z,18.45
2022-10-28T06:39:37.007Z,11.57
2022-10-28T06:42:03.948Z,19.05
2022-10-28T06:44:30.727Z,14.18
2022-10-28T06:46:59.213Z,10.23
2022-10-28T06:49:25.998Z,11.93
2022-10-28T06:51:52.798Z,10.98
2022-10-28T06:54:19.506Z,10.77
2022-10-28T06:56:47.709Z,16.08
2022-10-28T06:59:14.411Z,13.82
2022-10-28T07:01:41.452Z,12.05
2022-10-28T07:04:11.262Z,13.00
2022-10-28T07:06:38.048Z,13.77
2022-10-28T07:09:04.789Z,12.13
2022-10-28T07:11:31.574Z,13.75
2022-10-28T07:13:58.287Z,12.00
2022-10-28T07:16:25.135Z,10.55
2022-10-28T07:18:51.813Z,10.35
2022-10-28T07:21:18.823Z,8.80
2022-10-28T07:23:46.951Z,10.80
2022-10-28T07:26:14.053Z,20.50
2022-10-28T07:28:42.976Z,9.00
2022-10-28T07:33:36.411Z,14.18
2022-10-28T07:36:04.892Z,11.23
2022-10-28T07:38:31.705Z,11.30
2022-10-28T07:40:58.434Z,9.15
2022-10-28T07:43:25.319Z,11.70
2022-10-28T07:45:58.336Z,13.15
2022-10-28T07:48:28.550Z,13.77
2022-10-28T07:50:55.283Z,12.85
2022-10-28T07:53:24.827Z,11.77
2022-10-28T07:55:59.184Z,11.80
2022-10-28T07:58:26.117Z,13.75
2022-10-28T08:00:53.378Z,10.95
2022-10-28T08:03:20.402Z,9.43
2022-10-28T08:05:47.391Z,10.38
2022-10-28T08:08:14.104Z,10.57
2022-10-28T08:10:40.814Z,11.40
2022-10-28T08:13:07.544Z,10.07
2022-10-28T08:15:34.322Z,9.13
2022-10-28T08:18:01.096Z,9.63
2022-10-28T08:20:27.938Z,11.55
2022-10-28T08:22:54.926Z,14.13
2022-10-28T08:25:21.783Z,11.55
2022-10-28T08:27:48.594Z,10.88
2022-10-28T08:30:15.813Z,9.93
2022-10-28T08:32:42.610Z,9.90
2022-10-28T08:35:09.494Z,10.73
2022-10-28T08:37:36.341Z,11.68
2022-10-28T08:40:03.312Z,11.57
2022-10-28T08:42:37.854Z,10.55
2022-10-28T08:45:22.934Z,9.55
2022-10-28T08:48:11.383Z,12.80
2022-10-28T08:50:49.468Z,10.88
2022-10-28T08:53:41.504Z,10.60
2022-10-28T08:56:14.697Z,11.57
2022-10-28T08:58:44.022Z,10.00
2022-10-28T09:01:18.726Z,11.10
2022-10-28T09:03:46.929Z,11.55
2022-10-28T09:06:13.648Z,9.18
2022-10-28T09:08:48.484Z,10.00
2022-10-28T09:11:43.292Z,10.60
2022-10-28T09:14:28.865Z,9.63
2022-10-28T09:17:12.503Z,9.27
2022-10-28T09:19:48.987Z,7.40
2022-10-28T09:22:34.025Z,10.60
2022-10-28T09:25:03.331Z,8.95
2022-10-28T09:27:58.345Z,7.72
2022-10-28T09:30:52.862Z,9.13
2022-10-28T09:33:35.003Z,11.15
2022-10-28T09:36:03.756Z,8.10
2022-10-28T09:38:34.487Z,8.75
2022-10-28T09:41:20.701Z,7.97
2022-10-28T09:44:09.693Z,7.43
2022-10-28T09:46:37.924Z,8.70
2022-10-28T09:49:21.336Z,8.52
2022-10-28T09:51:54.460Z,8.07
2022-10-28T09:54:38.639Z,8.15
2022-10-28T09:59:32.359Z,7.70
2022-10-28T10:01:59.331Z,9.82
2022-10-28T10:04:27.499Z,9.32
2022-10-28T10:07:11.413Z,7.18
2022-10-28T10:09:39.225Z,5.93
2022-10-28T10:12:10.337Z,8.43
2022-10-28T10:14:41.048Z,8.00
2022-10-28T10:17:23.158Z,7.28
2022-10-28T10:20:06.144Z,5.07
2022-10-28T10:22:35.678Z,12.85
2022-10-28T10:25:04.169Z,8.57
2022-10-28T10:27:31.709Z,7.60
2022-10-28T10:29:58.900Z,5.90
2022-10-28T10:32:32.377Z,10.00
2022-10-28T10:35:28.400Z,9.07
2022-10-28T10:37:57.366Z,8.23
2022-10-28T10:40:33.922Z,6.35
2022-10-28T10:43:22.556Z,6.80
2022-10-28T10:45:58.958Z,5.07
2022-10-28T10:48:25.937Z,6.65
2022-10-28T10:50:52.891Z,7.80
2022-10-28T10:53:25.779Z,7.32
2022-10-28T10:56:08.456Z,6.97
2022-10-28T10:58:40.436Z,6.28
2022-10-28T11:01:08.168Z,8.32
2022-10-28T11:03:59.479Z,8.40
2022-10-28T11:06:28.147Z,5.82
2022-10-28T11:08:57.956Z,9.45
2022-10-28T11:11:35.192Z,10.50
2022-10-28T11:14:24.510Z,6.20
2022-10-28T11:16:51.121Z,7.00
2022-10-28T11:19:24.825Z,7.28
2022-10-28T11:22:06.737Z,7.88
2022-10-28T11:25:03.553Z,9.32
2022-10-28T11:28:10.841Z,8.85
2022-10-28T11:30:48.420Z,9.10
2022-10-28T11:33:34.190Z,8.38
2022-10-28T11:36:24.388Z,7.82
2022-10-28T11:39:03.883Z,7.38
2022-10-28T11:41:52.492Z,6.65
2022-10-28T11:44:31.469Z,8.07
2022-10-28T11:47:02.433Z,5.95
2022-10-28T11:49:40.800Z,7.35
2022-10-28T11:52:26.211Z,7.15
2022-10-28T11:55:14.635Z,8.07
2022-10-28T11:58:20.851Z,9.30
2022-10-28T12:01:04.168Z,6.50
2022-10-28T12:03:41.074Z,10.30
2022-10-28T12:06:15.864Z,7.25
2022-10-28T12:08:48.496Z,8.30
2022-10-28T12:11:29.491Z,6.60
2022-10-28T12:14:30.318Z,9.13
2022-10-28T12:16:58.637Z,6.47
2022-10-28T12:19:41.419Z,9.27
2022-10-28T12:22:22.251Z,9.07
2022-10-28T12:24:49.483Z,10.20
2022-10-28T12:27:33.091Z,7.75
2022-10-28T12:30:06.201Z,7.35
2022-10-28T12:32:35.420Z,7.53
2022-10-28T12:35:15.648Z,7.65
2022-10-28T12:37:48.687Z,7.13
2022-10-28T12:40:21.240Z,5.63
2022-10-28T12:42:57.975Z,7.78
2022-10-28T12:45:25.292Z,8.13
2022-10-28T12:48:04.446Z,7.20
2022-10-28T12:50:39.293Z,6.88
2022-10-28T12:53:24.345Z,6.25
2022-10-28T12:55:58.139Z,7.85
2022-10-28T13:01:17.385Z,5.00
2022-10-28T13:03:45.099Z,8.10
2022-10-28T13:06:34.774Z,7.93
2022-10-28T13:09:33.275Z,7.90
2022-10-28T13:12:24.939Z,8.18
2022-10-28T13:17:41.613Z,10.35
2022-10-28T13:20:41.544Z,5.07
2022-10-28T13:23:30.132Z,7.82
2022-10-28T13:26:18.550Z,5.45
2022-10-28T13:28:47.854Z,7.90
2022-10-28T13:31:15.522Z,5.45
2022-10-28T13:33:55.069Z,5.80
2022-10-28T13:36:36.383Z,7.57
2022-10-28T13:39:06.265Z,7.38
2022-10-28T13:41:43.452Z,6.85
2022-10-28T13:44:24.527Z,7.88
2022-10-28T13:46:57.536Z,9.50
2022-10-28T13:49:34.775Z,7.82
2022-10-28T13:52:19.629Z,6.95
2022-10-28T13:54:46.087Z,6.25
2022-10-28T13:57:23.046Z,7.80
2022-10-28T13:59:57.593Z,5.22
2022-10-28T14:02:48.126Z,11.90
2022-10-28T14:05:17.171Z,7.15
2022-10-28T14:07:56.004Z,7.55
2022-10-28T14:10:25.823Z,7.03
2022-10-28T14:12:59.254Z,5.93
2022-10-28T14:15:28.658Z,7.72
2022-10-28T14:18:42.958Z,6.75
2022-10-28T14:21:10.110Z,8.25
2022-10-28T14:23:39.700Z,9.85
2022-10-28T14:26:06.484Z,6.85
2022-10-28T14:28:32.980Z,9.75
2022-10-28T14:31:11.765Z,5.25
2022-10-28T14:34:11.812Z,6.45
2022-10-28T14:36:53.159Z,7.68
2022-10-28T14:39:52.401Z,6.68
2022-10-28T14:42:34.140Z,6.10
2022-10-28T14:45:39.564Z,7.53
2022-10-28T14:48:29.082Z,7.50
2022-10-28T14:50:56.095Z,7.57
2022-10-28T14:53:29.380Z,5.78
2022-10-28T14:56:02.001Z,5.10
2022-10-28T14:58:31.707Z,7.20
2022-10-28T15:01:16.779Z,7.20
2022-10-28T15:03:48.872Z,6.47
2022-10-28T15:06:33.984Z,6.13
2022-10-28T15:09:07.312Z,7.32
2022-10-28T15:11:34.406Z,7.30
2022-10-28T15:14:24.714Z,7.07
2022-10-28T15:16:51.510Z,5.97
2022-10-28T15:19:24.437Z,7.13
2022-10-28T15:22:18.374Z,4.90
2022-10-28T15:24:58.271Z,6.05
2022-10-28T15:27:27.532Z,7.70
2022-10-28T15:29:57.856Z,8.95
2022-10-28T15:32:32.834Z,9.30
2022-10-28T15:35:00.201Z,8.85
2022-10-28T15:37:29.495Z,9.60
2022-10-28T15:40:19.774Z,6.03
2022-10-28T15:42:52.948Z,7.78
2022-10-28T15:45:24.792Z,6.25
2022-10-28T15:47:55.442Z,7.45
2022-10-28T15:50:34.439Z,8.30
2022-10-28T15:53:06.954Z,7.25
2022-10-28T15:58:33.435Z,6.85
2022-10-28T16:01:00.421Z,7.95
2022-10-28T16:03:40.826Z,8.02
2022-10-28T16:06:31.833Z,8.15
2022-10-28T16:09:01.199Z,8.90
2022-10-28T16:11:30.488Z,6.78
2022-10-28T16:13:58.357Z,10.40
2022-10-28T16:16:27.946Z,10.02
2022-10-28T16:19:12.950Z,8.40
2022-10-28T16:21:44.881Z,9.77
2022-10-28T16:24:11.484Z,7.22
2022-10-28T16:26:38.061Z,18.08
2022-10-28T16:29:16.758Z,24.90
2022-10-28T16:31:52.862Z,18.98
2022-10-28T16:34:20.602Z,13.35
2022-10-28T16:36:47.205Z,12.63
2022-10-28T16:39:14.190Z,15.98
2022-10-28T16:41:41.007Z,16.55
2022-10-28T16:44:18.072Z,34.75
2022-10-28T16:46:44.692Z,27.10
2022-10-28T16:49:11.249Z,24.60
2022-10-28T16:51:38.312Z,31.88
2022-10-28T16:54:04.905Z,32.55
2022-10-28T16:56:31.469Z,27.63
2022-10-28T16:58:58.061Z,27.05
2022-10-28T17:01:25.475Z,16.33
2022-10-28T17:03:52.146Z,11.60
2022-10-28T17:06:18.769Z,10.35
2022-10-28T17:14:03.706Z,15.77
2022-10-28T17:16:30.364Z,13.45
2022-10-28T17:18:56.978Z,15.65
2022-10-28T17:21:23.599Z,14.52
2022-10-28T17:23:50.513Z,14.52
2022-10-28T17:26:17.107Z,16.25
2022-10-28T17:28:43.765Z,17.45
2022-10-28T17:31:10.698Z,17.08
2022-10-28T17:33:37.338Z,11.93
2022-10-28T17:36:08.637Z,14.27
2022-10-28T17:38:35.564Z,12.10
2022-10-28T17:41:02.452Z,11.80
2022-10-28T17:43:29.222Z,11.32
2022-10-28T17:46:06.575Z,9.82
2022-10-28T17:48:33.750Z,10.10
2022-10-28T17:51:00.460Z,8.80
2022-10-28T17:53:27.166Z,10.75
2022-10-28T17:56:01.115Z,10.52
2022-10-28T17:58:27.755Z,12.57
2022-10-28T18:00:59.476Z,20.50
2022-10-28T18:03:27.028Z,21.10
2022-10-28T18:05:53.751Z,19.35
2022-10-28T18:08:23.149Z,23.70
2022-10-28T18:10:54.920Z,20.58
2022-10-28T18:13:29.987Z,20.75
2022-10-28T18:15:57.252Z,17.13
2022-10-28T18:18:26.971Z,15.65
2022-10-28T18:20:54.122Z,14.45
2022-10-28T18:23:21.911Z,15.13
2022-10-28T18:26:12.796Z,11.20
2022-10-28T18:28:41.541Z,9.40
2022-10-28T18:31:11.682Z,10.15
2022-10-28T18:33:38.627Z,9.32
2022-10-28T18:36:07.757Z,9.73
2022-10-28T18:38:34.357Z,12.70
2022-10-28T18:41:01.070Z,14.52
2022-10-28T18:43:27.946Z,10.75
2022-10-28T18:45:54.763Z,10.45
2022-10-28T18:48:21.350Z,10.00
2022-10-28T18:51:06.610Z,12.73
2022-10-28T18:53:38.439Z,10.73
2022-10-28T18:56:06.691Z,7.50
2022-10-28T18:58:33.323Z,9.95
2022-10-28T19:01:08.453Z,8.20
2022-10-28T19:03:35.941Z,9.25
2022-10-28T19:06:05.593Z,6.95
2022-10-28T19:08:33.365Z,8.35
2022-10-28T19:11:01.646Z,12.25
2022-10-28T19:13:28.778Z,7.18
2022-10-28T19:15:55.461Z,7.45
2022-10-28T19:18:22.341Z,11.80
2022-10-28T19:20:50.685Z,7.47
2022-10-28T19:23:17.994Z,9.77
2022-10-28T19:25:53.879Z,7.78
2022-10-28T19:28:20.464Z,6.80
2022-10-28T19:30:47.152Z,8.52
2022-10-28T19:33:13.892Z,9.30
2022-10-28T19:35:41.882Z,7.03
2022-10-28T19:38:08.475Z,9.40
2022-10-28T19:40:35.041Z,10.00
2022-10-28T19:43:01.601Z,10.75
2022-10-28T19:45:28.448Z,8.65
2022-10-28T19:47:55.224Z,8.73
2022-10-28T19:50:22.167Z,9.48
2022-10-28T19:52:48.742Z,10.40
2022-10-28T19:55:15.366Z,8.90
2022-10-28T19:57:42.041Z,9.68
2022-10-28T20:00:09.745Z,12.38
2022-10-28T20:02:36.747Z,13.60
2022-10-28T20:05:04.464Z,12.18
2022-10-28T20:07:32.097Z,7.57
2022-10-28T20:12:31.851Z,10.55
2022-10-28T20:14:58.883Z,12.75
2022-10-28T20:17:25.936Z,9.48
2022-10-28T20:19:53.212Z,10.85
2022-10-28T20:22:20.370Z,12.25
2022-10-28T20:24:47.509Z,8.95
2022-10-28T20:27:14.441Z,11.30
2022-10-28T20:29:41.252Z,11.48
2022-10-28T20:32:08.110Z,10.20
2022-10-28T20:34:34.935Z,12.18
2022-10-28T20:37:04.417Z,8.70
2022-10-28T20:39:31.258Z,9.98
2022-10-28T20:41:58.325Z,7.30
2022-10-28T20:44:25.163Z,9.55
2022-10-28T20:46:52.240Z,7.22
2022-10-28T20:49:19.236Z,9.07
2022-10-28T20:51:46.322Z,7.53
2022-10-28T20:54:13.298Z,8.30
2022-10-28T20:56:42.035Z,8.48
2022-10-28T20:59:09.161Z,8.60
2022-10-28T21:01:38.584Z,11.18
2022-10-28T21:04:07.633Z,6.90
2022-10-28T21:06:35.134Z,8.45
2022-10-28T21:09:01.999Z,6.22
2022-10-28T21:11:29.083Z,8.07
2022-10-28T21:13:57.755Z,8.80
2022-10-28T21:16:28.769Z,10.23
2022-10-28T21:18:57.897Z,9.15
2022-10-28T21:21:27.948Z,7.50
2022-10-28T21:23:54.569Z,9.07
2022-10-28T21:26:22.102Z,11.27
2022-10-28T21:28:53.765Z,12.07
2022-10-28T21:31:21.208Z,12.00
2022-10-28T21:36:17.051Z,9.68
2022-10-28T21:38:43.786Z,11.15
2022-10-28T21:41:18.896Z,12.68
2022-10-28T21:43:48.099Z,10.23
2022-10-28T21:46:15.620Z,9.05
2022-10-28T21:48:42.916Z,13.88
2022-10-28T21:51:14.592Z,12.45
2022-10-28T21:53:42.126Z,10.93
2022-10-28T21:56:17.434Z,12.25
2022-10-28T21:58:46.195Z,11.25
2022-10-28T22:01:23.814Z,8.15
2022-10-28T22:03:51.641Z,10.60
2022-10-28T22:06:18.411Z,12.25
2022-10-28T22:08:45.107Z,12.32
2022-10-28T22:11:14.071Z,9.85
2022-10-28T22:13:41.033Z,11.00
2022-10-28T22:16:11.320Z,11.35
2022-10-28T22:18:38.463Z,9.48
2022-10-28T22:21:25.389Z,12.98
2022-10-28T22:23:52.508Z,13.30
2022-10-28T22:26:21.581Z,10.63
2022-10-28T22:28:48.587Z,9.55
2022-10-28T22:31:19.086Z,10.75
2022-10-28T22:36:22.678Z,10.52
2022-10-28T22:38:50.088Z,12.05
2022-10-28T22:41:28.527Z,11.73
2022-10-28T22:43:59.689Z,10.85
2022-10-28T22:46:28.432Z,11.48
2022-10-28T22:48:55.066Z,12.85
2022-10-28T22:51:24.716Z,9.07
2022-10-28T22:53:51.337Z,9.73
2022-10-28T22:56:20.379Z,7.65
2022-10-28T22:58:48.199Z,11.10
2022-10-28T23:01:17.382Z,10.82
2022-10-28T23:03:46.018Z,11.05
2022-10-28T23:06:18.066Z,12.65
2022-10-28T23:08:44.994Z,13.65
2022-10-28T23:11:12.741Z,10.15
2022-10-28T23:13:39.826Z,8.85
2022-10-28T23:16:13.652Z,13.60
2022-10-28T23:18:40.613Z,10.25
2022-10-28T23:21:10.428Z,9.75
2022-10-28T23:23:37.228Z,10.73
2022-10-28T23:26:04.547Z,11.45
2022-10-28T23:28:31.226Z,12.13
2022-10-28T23:31:02.823Z,10.40
2022-10-28T23:33:32.857Z,10.00
2022-10-28T23:36:01.054Z,8.30
2022-10-28T23:38:27.680Z,12.48
2022-10-28T23:41:03.842Z,10.30
2022-10-28T23:43:31.372Z,11.68
2022-10-28T23:45:58.594Z,9.95
2022-10-28T23:48:25.893Z,8.32
2022-10-28T23:50:52.945Z,11.75
2022-10-28T23:53:23.425Z,9.20
2022-10-28T23:55:50.787Z,8.90
2022-10-28T23:58:18.798Z,8.10
